Time;durP1;ratioP1;P1;durP2;ratioP2;P2;SDS_P1;SDS_P2;PMS_P1;PMS_P2;Temp;Humidity;BMP_temperature;BMP_pressure;BME280_temperature;BME280_humidity;BME280_pressure;Samples;Min_cycle;Max_cycle;Signal;HPM_P1;HPM_P2
2021/12/17 00:00:45;;;;;;;21.5;11.85;;;;;;;1.55;100;97160.96;;;;
2021/12/17 00:02:28;;;;;;;21.5;11.85;;;;;;;1.55;100;97160.96;;;;
2021/12/17 00:03:39;;;;;;;21.5;11.85;;;;;;;1.55;100;97160.96;;;;
2021/12/17 00:04:52;;;;;;;21.5;11.85;;;;;;;1.55;100;97160.96;;;;
2021/12/17 00:06:59;;;;;;;21.5;11.85;;;;;;;1.55;100;97160.96;;;;
2021/12/17 00:08:00;;;;;;;21.5;11.85;;;;;;;1.55;100;97160.96;;;;
2021/12/17 00:09:00;;;;;;;21.5;11.85;;;;;;;1.55;100;97160.96;;;;
2021/12/17 00:10:02;;;;;;;21.5;11.85;;;;;;;1.55;100;97160.96;;;;
2021/12/17 00:11:10;;;;;;;21.15;11.15;;;;;;;1.68;100;97140.31;;;;
2021/12/17 00:12:11;;;;;;;21.15;11.15;;;;;;;1.68;100;97140.31;;;;
2021/12/17 00:13:15;;;;;;;21.15;11.15;;;;;;;1.68;100;97140.31;;;;
2021/12/17 00:14:25;;;;;;;21.15;11.15;;;;;;;1.68;100;97140.31;;;;
2021/12/17 00:15:26;;;;;;;21.15;11.15;;;;;;;1.68;100;97140.31;;;;
2021/12/17 00:16:32;;;;;;;21.15;11.15;;;;;;;1.68;100;97140.31;;;;
2021/12/17 00:17:37;;;;;;;21.15;11.15;;;;;;;1.68;100;97140.31;;;;
2021/12/17 00:18:51;;;;;;;21.15;11.15;;;;;;;1.68;100;97140.31;;;;
2021/12/17 00:20:19;;;;;;;21.15;11.15;;;;;;;1.68;100;97140.31;;;;
2021/12/17 00:48:36;;;;;;;18.75;11;;;;;;;1.87;100;97119.08;;;;
2021/12/17 00:49:38;;;;;;;18.75;11;;;;;;;1.87;100;97119.08;;;;
2021/12/17 00:51:05;;;;;;;18.75;11;;;;;;;1.87;100;97119.08;;;;
2021/12/17 00:52:11;;;;;;;18.75;11;;;;;;;1.87;100;97119.08;;;;
2021/12/17 00:53:17;;;;;;;18.75;11;;;;;;;1.87;100;97119.08;;;;
2021/12/17 00:54:20;;;;;;;18.75;11;;;;;;;1.87;100;97119.08;;;;
2021/12/17 00:55:25;;;;;;;18.6;10.55;;;;;;;2.07;100;97150.48;;;;
2021/12/17 00:56:26;;;;;;;18.6;10.55;;;;;;;2.07;100;97150.48;;;;
2021/12/17 00:57:34;;;;;;;18.6;10.55;;;;;;;2.07;100;97150.48;;;;
2021/12/17 00:58:35;;;;;;;18.6;10.55;;;;;;;2.07;100;97150.48;;;;
2021/12/17 00:59:35;;;;;;;18.6;10.55;;;;;;;2.07;100;97150.48;;;;
2021/12/17 01:00:37;;;;;;;18.6;10.55;;;;;;;2.07;100;97150.48;;;;
2021/12/17 01:01:37;;;;;;;18.6;10.55;;;;;;;2.07;100;97150.48;;;;
2021/12/17 01:02:38;;;;;;;18.6;10.55;;;;;;;2.07;100;97150.48;;;;
2021/12/17 01:03:39;;;;;;;18.6;10.55;;;;;;;2.07;100;97150.48;;;;
2021/12/17 01:04:40;;;;;;;18.6;10.55;;;;;;;2.07;100;97150.48;;;;
2021/12/17 01:05:45;;;;;;;18.5;10.95;;;;;;;2.14;100;97158.7;;;;
2021/12/17 01:06:46;;;;;;;18.5;10.95;;;;;;;2.14;100;97158.7;;;;
2021/12/17 01:07:47;;;;;;;18.5;10.95;;;;;;;2.14;100;97158.7;;;;
2021/12/17 01:08:50;;;;;;;18.5;10.95;;;;;;;2.14;100;97158.7;;;;
2021/12/17 01:09:51;;;;;;;18.5;10.95;;;;;;;2.14;100;97158.7;;;;
2021/12/17 01:10:53;;;;;;;18.5;10.95;;;;;;;2.14;100;97158.7;;;;
2021/12/17 01:11:56;;;;;;;18.5;10.95;;;;;;;2.14;100;97158.7;;;;
2021/12/17 01:12:58;;;;;;;18.5;10.95;;;;;;;2.14;100;97158.7;;;;
2021/12/17 01:13:59;;;;;;;18.5;10.95;;;;;;;2.14;100;97158.7;;;;
2021/12/17 01:15:00;;;;;;;18.5;10.95;;;;;;;2.14;100;97158.7;;;;
2021/12/17 01:16:03;;;;;;;18.5;10.95;;;;;;;2.14;100;97158.7;;;;
2021/12/17 01:17:04;;;;;;;19.2;10.95;;;;;;;2.22;100;97163.34;;;;
2021/12/17 01:18:09;;;;;;;19.2;10.95;;;;;;;2.22;100;97163.34;;;;
2021/12/17 01:19:22;;;;;;;19.2;10.95;;;;;;;2.22;100;97163.34;;;;
2021/12/17 01:20:35;;;;;;;19.2;10.95;;;;;;;2.22;100;97163.34;;;;
2021/12/17 01:21:53;;;;;;;19.2;10.95;;;;;;;2.22;100;97163.34;;;;
2021/12/17 01:23:09;;;;;;;19.2;10.95;;;;;;;2.22;100;97163.34;;;;
2021/12/17 01:24:38;;;;;;;19.2;10.95;;;;;;;2.22;100;97163.34;;;;
2021/12/17 01:35:17;;;;;;;19.2;10.95;;;;;;;2.22;100;97163.34;;;;
2021/12/17 01:37:40;;;;;;;19.55;11.15;;;;;;;2.3;100;97140.86;;;;
2021/12/17 01:39:40;;;;;;;21.5;11.95;;;;;;;2.39;100;97127.59;;;;
2021/12/17 01:41:02;;;;;;;21.5;11.95;;;;;;;2.39;100;97127.59;;;;
2021/12/17 01:42:06;;;;;;;21.5;11.95;;;;;;;2.39;100;97127.59;;;;
2021/12/17 01:43:08;;;;;;;21.5;11.95;;;;;;;2.39;100;97127.59;;;;
2021/12/17 01:44:10;;;;;;;21.5;11.95;;;;;;;2.39;100;97127.59;;;;
2021/12/17 01:45:11;;;;;;;21.5;11.95;;;;;;;2.39;100;97127.59;;;;
2021/12/17 01:46:12;;;;;;;21.5;11.95;;;;;;;2.39;100;97127.59;;;;
2021/12/17 01:47:17;;;;;;;21.5;11.95;;;;;;;2.39;100;97127.59;;;;
2021/12/17 01:48:21;;;;;;;21.5;11.95;;;;;;;2.39;100;97127.59;;;;
2021/12/17 01:55:39;;;;;;;21.5;11.95;;;;;;;2.39;100;97127.59;;;;
2021/12/17 01:55:49;;;;;;;21.5;11.95;;;;;;;2.39;100;97127.59;;;;
2021/12/17 01:56:55;;;;;;;21.5;11.95;;;;;;;2.39;100;97127.59;;;;
2021/12/17 02:03:14;;;;;;;20.85;11.95;;;;;;;2.44;100;97098.63;;;;
2021/12/17 02:04:15;;;;;;;20.85;11.95;;;;;;;2.44;100;97098.63;;;;
2021/12/17 02:05:15;;;;;;;20.85;11.95;;;;;;;2.44;100;97098.63;;;;
2021/12/17 02:06:18;;;;;;;20.85;11.95;;;;;;;2.44;100;97098.63;;;;
2021/12/17 02:07:18;;;;;;;20.85;11.95;;;;;;;2.44;100;97098.63;;;;
2021/12/17 02:08:19;;;;;;;20.85;11.95;;;;;;;2.44;100;97098.63;;;;
2021/12/17 02:09:55;;;;;;;20.85;11.95;;;;;;;2.44;100;97098.63;;;;
2021/12/17 02:12:21;;;;;;;20.85;11.95;;;;;;;2.44;100;97098.63;;;;
2021/12/17 02:32:45;;;;;;;24.05;14.25;;;;;;;2.5;100;97096.8;;;;
2021/12/17 02:33:46;;;;;;;25.95;13.85;;;;;;;2.56;100;97080.22;;;;
2021/12/17 02:35:02;;;;;;;25.95;13.85;;;;;;;2.56;100;97080.22;;;;
2021/12/17 02:36:06;;;;;;;25.95;13.85;;;;;;;2.56;100;97080.22;;;;
2021/12/17 02:37:10;;;;;;;25.95;13.85;;;;;;;2.56;100;97080.22;;;;
2021/12/17 02:38:13;;;;;;;25.95;13.85;;;;;;;2.56;100;97080.22;;;;
2021/12/17 02:39:37;;;;;;;25.95;13.85;;;;;;;2.56;100;97080.22;;;;
2021/12/17 02:45:52;;;;;;;24.85;14.1;;;;;;;2.58;100;97074.19;;;;
2021/12/17 02:46:52;;;;;;;24.85;14.1;;;;;;;2.58;100;97074.19;;;;
2021/12/17 02:47:53;;;;;;;24.85;14.1;;;;;;;2.58;100;97074.19;;;;
2021/12/17 02:48:58;;;;;;;24.85;14.1;;;;;;;2.58;100;97074.19;;;;
2021/12/17 02:50:00;;;;;;;24.85;14.1;;;;;;;2.58;100;97074.19;;;;
2021/12/17 02:51:01;;;;;;;24.85;14.1;;;;;;;2.58;100;97074.19;;;;
2021/12/17 02:52:01;;;;;;;24.85;14.1;;;;;;;2.58;100;97074.19;;;;
2021/12/17 02:53:07;;;;;;;24.85;14.1;;;;;;;2.58;100;97074.19;;;;
2021/12/17 02:54:09;;;;;;;24.85;14.1;;;;;;;2.58;100;97074.19;;;;
2021/12/17 02:55:10;;;;;;;24.85;14.1;;;;;;;2.58;100;97074.19;;;;
2021/12/17 02:56:10;;;;;;;26.35;14.6;;;;;;;2.62;100;97064.5;;;;
2021/12/17 02:57:11;;;;;;;26.35;14.6;;;;;;;2.62;100;97064.5;;;;
2021/12/17 02:58:12;;;;;;;26.35;14.6;;;;;;;2.62;100;97064.5;;;;
2021/12/17 02:59:13;;;;;;;26.35;14.6;;;;;;;2.62;100;97064.5;;;;
2021/12/17 03:00:15;;;;;;;26.35;14.6;;;;;;;2.62;100;97064.5;;;;
2021/12/17 03:01:16;;;;;;;26.35;14.6;;;;;;;2.62;100;97064.5;;;;
2021/12/17 03:02:17;;;;;;;26.35;14.6;;;;;;;2.62;100;97064.5;;;;
2021/12/17 03:03:20;;;;;;;26.35;14.6;;;;;;;2.62;100;97064.5;;;;
2021/12/17 03:04:23;;;;;;;26.35;14.6;;;;;;;2.62;100;97064.5;;;;
2021/12/17 03:05:26;;;;;;;26.35;14.6;;;;;;;2.62;100;97064.5;;;;
2021/12/17 03:06:27;;;;;;;25.8;14.45;;;;;;;2.66;100;97068.55;;;;
2021/12/17 03:07:28;;;;;;;25.8;14.45;;;;;;;2.66;100;97068.55;;;;
2021/12/17 03:08:29;;;;;;;25.8;14.45;;;;;;;2.66;100;97068.55;;;;
2021/12/17 03:09:45;;;;;;;25.8;14.45;;;;;;;2.66;100;97068.55;;;;
2021/12/17 03:10:47;;;;;;;25.8;14.45;;;;;;;2.66;100;97068.55;;;;
2021/12/17 03:11:50;;;;;;;25.8;14.45;;;;;;;2.66;100;97068.55;;;;
2021/12/17 03:12:54;;;;;;;25.8;14.45;;;;;;;2.66;100;97068.55;;;;
2021/12/17 03:13:54;;;;;;;25.8;14.45;;;;;;;2.66;100;97068.55;;;;
2021/12/17 03:15:02;;;;;;;25.8;14.45;;;;;;;2.66;100;97068.55;;;;
2021/12/17 03:16:09;;;;;;;25.8;14.45;;;;;;;2.66;100;97068.55;;;;
2021/12/17 03:17:17;;;;;;;25.8;14.45;;;;;;;2.66;100;97068.55;;;;
2021/12/17 03:18:49;;;;;;;27.7;15.15;;;;;;;2.75;100;97069.02;;;;
2021/12/17 03:25:01;;;;;;;27.7;15.15;;;;;;;2.75;100;97069.02;;;;
2021/12/17 03:26:02;;;;;;;27.7;15.15;;;;;;;2.75;100;97069.02;;;;
2021/12/17 03:27:05;;;;;;;27.7;15.15;;;;;;;2.75;100;97069.02;;;;
2021/12/17 03:28:06;;;;;;;27.7;15.15;;;;;;;2.75;100;97069.02;;;;
2021/12/17 03:29:06;;;;;;;28.15;15.75;;;;;;;2.84;100;97059.75;;;;
2021/12/17 03:30:08;;;;;;;28.15;15.75;;;;;;;2.84;100;97059.75;;;;
2021/12/17 03:31:10;;;;;;;28.15;15.75;;;;;;;2.84;100;97059.75;;;;
2021/12/17 03:32:13;;;;;;;28.15;15.75;;;;;;;2.84;100;97059.75;;;;
2021/12/17 03:33:13;;;;;;;28.15;15.75;;;;;;;2.84;100;97059.75;;;;
2021/12/17 03:34:19;;;;;;;28.15;15.75;;;;;;;2.84;100;97059.75;;;;
2021/12/17 03:35:19;;;;;;;28.15;15.75;;;;;;;2.84;100;97059.75;;;;
2021/12/17 03:36:21;;;;;;;28.15;15.75;;;;;;;2.84;100;97059.75;;;;
2021/12/17 03:37:21;;;;;;;28.15;15.75;;;;;;;2.84;100;97059.75;;;;
2021/12/17 03:38:22;;;;;;;28.15;15.75;;;;;;;2.84;100;97059.75;;;;
2021/12/17 03:39:22;;;;;;;28.15;15.75;;;;;;;2.84;100;97059.75;;;;
2021/12/17 03:40:27;;;;;;;28.75;15.4;;;;;;;2.91;100;97075.95;;;;
2021/12/17 03:41:35;;;;;;;28.75;15.4;;;;;;;2.91;100;97075.95;;;;
2021/12/17 03:42:37;;;;;;;28.75;15.4;;;;;;;2.91;100;97075.95;;;;
2021/12/17 03:43:37;;;;;;;28.75;15.4;;;;;;;2.91;100;97075.95;;;;
2021/12/17 03:44:38;;;;;;;28.75;15.4;;;;;;;2.91;100;97075.95;;;;
2021/12/17 03:45:39;;;;;;;28.75;15.4;;;;;;;2.91;100;97075.95;;;;
2021/12/17 03:46:41;;;;;;;28.75;15.4;;;;;;;2.91;100;97075.95;;;;
2021/12/17 03:47:42;;;;;;;28.75;15.4;;;;;;;2.91;100;97075.95;;;;
2021/12/17 03:48:42;;;;;;;28.75;15.4;;;;;;;2.91;100;97075.95;;;;
2021/12/17 03:49:45;;;;;;;28.75;15.4;;;;;;;2.91;100;97075.95;;;;
2021/12/17 03:50:46;;;;;;;27.65;15.3;;;;;;;2.9;100;97080.91;;;;
2021/12/17 03:51:50;;;;;;;27.65;15.3;;;;;;;2.9;100;97080.91;;;;
2021/12/17 03:52:51;;;;;;;27.65;15.3;;;;;;;2.9;100;97080.91;;;;
2021/12/17 03:53:52;;;;;;;27.65;15.3;;;;;;;2.9;100;97080.91;;;;
2021/12/17 03:54:54;;;;;;;27.65;15.3;;;;;;;2.9;100;97080.91;;;;
2021/12/17 03:55:55;;;;;;;27.65;15.3;;;;;;;2.9;100;97080.91;;;;
2021/12/17 03:56:56;;;;;;;27.65;15.3;;;;;;;2.9;100;97080.91;;;;
2021/12/17 03:57:58;;;;;;;27.65;15.3;;;;;;;2.9;100;97080.91;;;;
2021/12/17 03:58:59;;;;;;;27.65;15.3;;;;;;;2.9;100;97080.91;;;;
2021/12/17 04:00:00;;;;;;;27.65;15.3;;;;;;;2.9;100;97080.91;;;;
2021/12/17 04:01:00;;;;;;;27.65;15.3;;;;;;;2.9;100;97080.91;;;;
2021/12/17 04:02:01;;;;;;;27.5;16.2;;;;;;;2.98;100;97077.1;;;;
2021/12/17 04:03:02;;;;;;;27.5;16.2;;;;;;;2.98;100;97077.1;;;;
2021/12/17 04:04:03;;;;;;;27.5;16.2;;;;;;;2.98;100;97077.1;;;;
2021/12/17 04:05:05;;;;;;;27.5;16.2;;;;;;;2.98;100;97077.1;;;;
2021/12/17 04:06:05;;;;;;;27.5;16.2;;;;;;;2.98;100;97077.1;;;;
2021/12/17 04:07:06;;;;;;;27.5;16.2;;;;;;;2.98;100;97077.1;;;;
2021/12/17 04:08:06;;;;;;;27.5;16.2;;;;;;;2.98;100;97077.1;;;;
2021/12/17 04:09:08;;;;;;;27.5;16.2;;;;;;;2.98;100;97077.1;;;;
2021/12/17 04:10:09;;;;;;;27.5;16.2;;;;;;;2.98;100;97077.1;;;;
2021/12/17 04:11:17;;;;;;;27.5;16.2;;;;;;;2.98;100;97077.1;;;;
2021/12/17 04:12:20;;;;;;;27.5;16.2;;;;;;;2.98;100;97077.1;;;;
2021/12/17 04:13:27;;;;;;;28.15;16.55;;;;;;;3.06;100;97078.47;;;;
2021/12/17 04:14:34;;;;;;;28.15;16.55;;;;;;;3.06;100;97078.47;;;;
2021/12/17 04:15:37;;;;;;;28.15;16.55;;;;;;;3.06;100;97078.47;;;;
2021/12/17 04:16:38;;;;;;;28.15;16.55;;;;;;;3.06;100;97078.47;;;;
2021/12/17 04:17:43;;;;;;;28.15;16.55;;;;;;;3.06;100;97078.47;;;;
2021/12/17 04:18:44;;;;;;;28.15;16.55;;;;;;;3.06;100;97078.47;;;;
2021/12/17 04:19:44;;;;;;;28.15;16.55;;;;;;;3.06;100;97078.47;;;;
2021/12/17 04:20:44;;;;;;;28.15;16.55;;;;;;;3.06;100;97078.47;;;;
2021/12/17 04:21:45;;;;;;;28.15;16.55;;;;;;;3.06;100;97078.47;;;;
2021/12/17 04:22:46;;;;;;;28.15;16.55;;;;;;;3.06;100;97078.47;;;;
2021/12/17 04:23:46;;;;;;;29.65;18.15;;;;;;;3.15;100;97072.35;;;;
2021/12/17 04:24:49;;;;;;;29.65;18.15;;;;;;;3.15;100;97072.35;;;;
2021/12/17 04:25:50;;;;;;;29.65;18.15;;;;;;;3.15;100;97072.35;;;;
2021/12/17 04:26:51;;;;;;;29.65;18.15;;;;;;;3.15;100;97072.35;;;;
2021/12/17 04:27:51;;;;;;;29.65;18.15;;;;;;;3.15;100;97072.35;;;;
2021/12/17 04:28:53;;;;;;;29.65;18.15;;;;;;;3.15;100;97072.35;;;;
2021/12/17 04:29:56;;;;;;;29.65;18.15;;;;;;;3.15;100;97072.35;;;;
2021/12/17 04:30:57;;;;;;;29.65;18.15;;;;;;;3.15;100;97072.35;;;;
2021/12/17 04:31:57;;;;;;;29.65;18.15;;;;;;;3.15;100;97072.35;;;;
2021/12/17 04:32:58;;;;;;;29.65;18.15;;;;;;;3.15;100;97072.35;;;;
2021/12/17 04:33:58;;;;;;;29.65;18.15;;;;;;;3.15;100;97072.35;;;;
2021/12/17 04:34:59;;;;;;;29.25;17.7;;;;;;;3.24;100;97046.08;;;;
2021/12/17 04:36:00;;;;;;;29.25;17.7;;;;;;;3.24;100;97046.08;;;;
2021/12/17 04:37:00;;;;;;;29.25;17.7;;;;;;;3.24;100;97046.08;;;;
2021/12/17 04:38:03;;;;;;;29.25;17.7;;;;;;;3.24;100;97046.08;;;;
2021/12/17 04:39:04;;;;;;;29.25;17.7;;;;;;;3.24;100;97046.08;;;;
2021/12/17 04:40:05;;;;;;;29.25;17.7;;;;;;;3.24;100;97046.08;;;;
2021/12/17 04:42:12;;;;;;;29.25;17.7;;;;;;;3.24;100;97046.08;;;;
2021/12/17 04:43:20;;;;;;;29.25;17.7;;;;;;;3.24;100;97046.08;;;;
2021/12/17 04:44:24;;;;;;;29.25;17.7;;;;;;;3.24;100;97046.08;;;;
2021/12/17 04:45:25;;;;;;;23.5;15.45;;;;;;;3.34;100;97036.64;;;;
2021/12/17 04:46:32;;;;;;;23.5;15.45;;;;;;;3.34;100;97036.64;;;;
2021/12/17 04:57:59;;;;;;;19.9;13.75;;;;;;;3.39;100;97033.45;;;;
2021/12/17 04:59:00;;;;;;;19.9;13.75;;;;;;;3.39;100;97033.45;;;;
2021/12/17 05:00:03;;;;;;;19.9;13.75;;;;;;;3.39;100;97033.45;;;;
2021/12/17 05:01:12;;;;;;;19.9;13.75;;;;;;;3.39;100;97033.45;;;;
2021/12/17 05:02:15;;;;;;;19.9;13.75;;;;;;;3.39;100;97033.45;;;;
2021/12/17 05:03:16;;;;;;;19.9;13.75;;;;;;;3.39;100;97033.45;;;;
2021/12/17 05:04:16;;;;;;;19.9;13.75;;;;;;;3.39;100;97033.45;;;;
2021/12/17 05:05:17;;;;;;;19.9;13.75;;;;;;;3.39;100;97033.45;;;;
2021/12/17 05:06:20;;;;;;;19.9;13.75;;;;;;;3.39;100;97033.45;;;;
2021/12/17 05:07:23;;;;;;;21.1;14.25;;;;;;;3.4;100;97029.88;;;;
2021/12/17 05:08:24;;;;;;;21.1;14.25;;;;;;;3.4;100;97029.88;;;;
2021/12/17 05:09:32;;;;;;;21.1;14.25;;;;;;;3.4;100;97029.88;;;;
2021/12/17 05:10:51;;;;;;;21.1;14.25;;;;;;;3.4;100;97029.88;;;;
2021/12/17 05:22:18;;;;;;;19;13.6;;;;;;;3.39;100;97016.09;;;;
2021/12/17 05:23:22;;;;;;;19;13.6;;;;;;;3.39;100;97016.09;;;;
2021/12/17 05:24:24;;;;;;;19;13.6;;;;;;;3.39;100;97016.09;;;;
2021/12/17 05:25:26;;;;;;;19;13.6;;;;;;;3.39;100;97016.09;;;;
2021/12/17 05:26:27;;;;;;;19;13.6;;;;;;;3.39;100;97016.09;;;;
2021/12/17 05:27:27;;;;;;;19;13.6;;;;;;;3.39;100;97016.09;;;;
2021/12/17 05:28:28;;;;;;;19;13.6;;;;;;;3.39;100;97016.09;;;;
2021/12/17 05:29:28;;;;;;;15.3;11.45;;;;;;;3.38;100;97017.07;;;;
2021/12/17 05:30:29;;;;;;;15.3;11.45;;;;;;;3.38;100;97017.07;;;;
2021/12/17 05:31:32;;;;;;;15.3;11.45;;;;;;;3.38;100;97017.07;;;;
2021/12/17 05:32:33;;;;;;;15.3;11.45;;;;;;;3.38;100;97017.07;;;;
2021/12/17 05:33:33;;;;;;;15.3;11.45;;;;;;;3.38;100;97017.07;;;;
2021/12/17 05:34:34;;;;;;;15.3;11.45;;;;;;;3.38;100;97017.07;;;;
2021/12/17 05:35:35;;;;;;;15.3;11.45;;;;;;;3.38;100;97017.07;;;;
2021/12/17 05:36:35;;;;;;;15.3;11.45;;;;;;;3.38;100;97017.07;;;;
2021/12/17 05:37:36;;;;;;;15.3;11.45;;;;;;;3.38;100;97017.07;;;;
2021/12/17 05:38:36;;;;;;;15.3;11.45;;;;;;;3.38;100;97017.07;;;;
2021/12/17 05:39:37;;;;;;;15.3;11.45;;;;;;;3.38;100;97017.07;;;;
2021/12/17 05:40:37;;;;;;;14.2;10.7;;;;;;;3.36;100;97015.13;;;;
2021/12/17 05:41:40;;;;;;;14.2;10.7;;;;;;;3.36;100;97015.13;;;;
2021/12/17 05:42:41;;;;;;;14.2;10.7;;;;;;;3.36;100;97015.13;;;;
2021/12/17 05:43:42;;;;;;;14.2;10.7;;;;;;;3.36;100;97015.13;;;;
2021/12/17 05:44:50;;;;;;;14.2;10.7;;;;;;;3.36;100;97015.13;;;;
2021/12/17 05:46:02;;;;;;;14.2;10.7;;;;;;;3.36;100;97015.13;;;;
2021/12/17 05:47:05;;;;;;;14.2;10.7;;;;;;;3.36;100;97015.13;;;;
2021/12/17 05:48:06;;;;;;;14.2;10.7;;;;;;;3.36;100;97015.13;;;;
2021/12/17 05:49:08;;;;;;;14.2;10.7;;;;;;;3.36;100;97015.13;;;;
2021/12/17 05:50:09;;;;;;;14.2;10.7;;;;;;;3.36;100;97015.13;;;;
2021/12/17 05:51:09;;;;;;;14.6;11.3;;;;;;;3.18;100;97032.87;;;;
2021/12/17 05:52:11;;;;;;;14.6;11.3;;;;;;;3.18;100;97032.87;;;;
2021/12/17 05:53:11;;;;;;;14.6;11.3;;;;;;;3.18;100;97032.87;;;;
2021/12/17 05:54:12;;;;;;;14.6;11.3;;;;;;;3.18;100;97032.87;;;;
2021/12/17 05:55:13;;;;;;;14.6;11.3;;;;;;;3.18;100;97032.87;;;;
2021/12/17 05:56:14;;;;;;;14.6;11.3;;;;;;;3.18;100;97032.87;;;;
2021/12/17 05:57:14;;;;;;;14.6;11.3;;;;;;;3.18;100;97032.87;;;;
2021/12/17 05:58:14;;;;;;;14.6;11.3;;;;;;;3.18;100;97032.87;;;;
2021/12/17 05:59:16;;;;;;;14.6;11.3;;;;;;;3.18;100;97032.87;;;;
2021/12/17 06:00:17;;;;;;;14.6;11.3;;;;;;;3.18;100;97032.87;;;;
2021/12/17 06:01:19;;;;;;;14.6;11.3;;;;;;;3.18;100;97032.87;;;;
2021/12/17 06:02:20;;;;;;;12.4;9.15;;;;;;;2.81;100;97063.11;;;;
2021/12/17 06:03:20;;;;;;;12.4;9.15;;;;;;;2.81;100;97063.11;;;;
2021/12/17 06:04:22;;;;;;;12.4;9.15;;;;;;;2.81;100;97063.11;;;;
2021/12/17 06:05:22;;;;;;;12.4;9.15;;;;;;;2.81;100;97063.11;;;;
2021/12/17 06:06:24;;;;;;;12.4;9.15;;;;;;;2.81;100;97063.11;;;;
2021/12/17 06:07:26;;;;;;;12.4;9.15;;;;;;;2.81;100;97063.11;;;;
2021/12/17 06:08:27;;;;;;;12.4;9.15;;;;;;;2.81;100;97063.11;;;;
2021/12/17 06:09:27;;;;;;;12.4;9.15;;;;;;;2.81;100;97063.11;;;;
2021/12/17 06:10:28;;;;;;;12.4;9.15;;;;;;;2.81;100;97063.11;;;;
2021/12/17 06:11:28;;;;;;;12.4;9.15;;;;;;;2.81;100;97063.11;;;;
2021/12/17 06:12:29;;;;;;;12.4;9.15;;;;;;;2.81;100;97063.11;;;;
2021/12/17 06:13:29;;;;;;;12.5;8.799999;;;;;;;2.36;100;97065.16;;;;
2021/12/17 06:14:30;;;;;;;12.5;8.799999;;;;;;;2.36;100;97065.16;;;;
2021/12/17 06:15:31;;;;;;;12.5;8.799999;;;;;;;2.36;100;97065.16;;;;
2021/12/17 06:16:33;;;;;;;12.5;8.799999;;;;;;;2.36;100;97065.16;;;;
2021/12/17 06:17:34;;;;;;;12.5;8.799999;;;;;;;2.36;100;97065.16;;;;
2021/12/17 06:18:35;;;;;;;12.5;8.799999;;;;;;;2.36;100;97065.16;;;;
2021/12/17 06:19:35;;;;;;;12.5;8.799999;;;;;;;2.36;100;97065.16;;;;
2021/12/17 06:20:36;;;;;;;12.5;8.799999;;;;;;;2.36;100;97065.16;;;;
2021/12/17 06:21:37;;;;;;;12.5;8.799999;;;;;;;2.36;100;97065.16;;;;
2021/12/17 06:22:37;;;;;;;12.5;8.799999;;;;;;;2.36;100;97065.16;;;;
2021/12/17 06:23:38;;;;;;;12.5;8.799999;;;;;;;2.36;100;97065.16;;;;
2021/12/17 06:24:40;;;;;;;13.05;9.25;;;;;;;1.89;100;97087.73;;;;
2021/12/17 06:25:41;;;;;;;13.05;9.25;;;;;;;1.89;100;97087.73;;;;
2021/12/17 06:26:41;;;;;;;13.05;9.25;;;;;;;1.89;100;97087.73;;;;
2021/12/17 06:27:42;;;;;;;13.05;9.25;;;;;;;1.89;100;97087.73;;;;
2021/12/17 06:28:43;;;;;;;13.05;9.25;;;;;;;1.89;100;97087.73;;;;
2021/12/17 06:29:44;;;;;;;13.05;9.25;;;;;;;1.89;100;97087.73;;;;
2021/12/17 06:30:45;;;;;;;13.05;9.25;;;;;;;1.89;100;97087.73;;;;
2021/12/17 06:31:46;;;;;;;13.05;9.25;;;;;;;1.89;100;97087.73;;;;
2021/12/17 06:32:47;;;;;;;13.05;9.25;;;;;;;1.89;100;97087.73;;;;
2021/12/17 06:33:47;;;;;;;13.05;9.25;;;;;;;1.89;100;97087.73;;;;
2021/12/17 06:34:48;;;;;;;13.05;9.25;;;;;;;1.89;100;97087.73;;;;
2021/12/17 06:35:49;;;;;;;13.45;8.8;;;;;;;1.41;100;97088.14;;;;
2021/12/17 06:36:49;;;;;;;13.45;8.8;;;;;;;1.41;100;97088.14;;;;
2021/12/17 06:37:50;;;;;;;13.45;8.8;;;;;;;1.41;100;97088.14;;;;
2021/12/17 06:38:50;;;;;;;13.45;8.8;;;;;;;1.41;100;97088.14;;;;
2021/12/17 06:39:50;;;;;;;13.45;8.8;;;;;;;1.41;100;97088.14;;;;
2021/12/17 06:40:53;;;;;;;13.45;8.8;;;;;;;1.41;100;97088.14;;;;
2021/12/17 06:41:53;;;;;;;13.45;8.8;;;;;;;1.41;100;97088.14;;;;
2021/12/17 06:42:54;;;;;;;13.45;8.8;;;;;;;1.41;100;97088.14;;;;
2021/12/17 06:43:57;;;;;;;13.45;8.8;;;;;;;1.41;100;97088.14;;;;
2021/12/17 06:45:02;;;;;;;13.45;8.8;;;;;;;1.41;100;97088.14;;;;
2021/12/17 06:46:16;;;;;;;12.65;9.25;;;;;;;1.06;100;97092.64;;;;
2021/12/17 06:47:27;;;;;;;12.65;9.25;;;;;;;1.06;100;97092.64;;;;
2021/12/17 06:48:31;;;;;;;12.65;9.25;;;;;;;1.06;100;97092.64;;;;
2021/12/17 06:49:46;;;;;;;12.65;9.25;;;;;;;1.06;100;97092.64;;;;
2021/12/17 06:56:55;;;;;;;12.65;9.25;;;;;;;1.06;100;97092.64;;;;
2021/12/17 06:58:35;;;;;;;15.95;9.700001;;;;;;;0.8;100;97092.7;;;;
2021/12/17 06:59:44;;;;;;;15.95;9.700001;;;;;;;0.8;100;97092.7;;;;
2021/12/17 07:01:03;;;;;;;15.95;9.700001;;;;;;;0.8;100;97092.7;;;;
2021/12/17 07:08:07;;;;;;;15.95;9.700001;;;;;;;0.8;100;97092.7;;;;
2021/12/17 07:09:53;;;;;;;14.95;10.55;;;;;;;0.67;100;97087.17;;;;
2021/12/17 07:10:55;;;;;;;14.95;10.55;;;;;;;0.67;100;97087.17;;;;
2021/12/17 07:17:10;;;;;;;14.95;10.55;;;;;;;0.67;100;97087.17;;;;
2021/12/17 07:19:01;;;;;;;14.95;10.55;;;;;;;0.67;100;97087.17;;;;
2021/12/17 07:35:44;;;;;;;20.4;12.35;;;;;;;0.72;100;97064.12;;;;
2021/12/17 07:36:57;;;;;;;20.4;12.35;;;;;;;0.72;100;97064.12;;;;
2021/12/17 07:39:02;;;;;;;20.4;12.35;;;;;;;0.72;100;97064.12;;;;
2021/12/17 07:40:03;;;;;;;20.4;12.35;;;;;;;0.72;100;97064.12;;;;
2021/12/17 07:41:05;;;;;;;23.9;13.65;;;;;;;0.88;100;97066.24;;;;
2021/12/17 07:42:06;;;;;;;23.9;13.65;;;;;;;0.88;100;97066.24;;;;
2021/12/17 07:43:12;;;;;;;23.9;13.65;;;;;;;0.88;100;97066.24;;;;
2021/12/17 07:44:13;;;;;;;23.9;13.65;;;;;;;0.88;100;97066.24;;;;
2021/12/17 07:45:14;;;;;;;23.9;13.65;;;;;;;0.88;100;97066.24;;;;
2021/12/17 07:46:15;;;;;;;23.9;13.65;;;;;;;0.88;100;97066.24;;;;
2021/12/17 07:47:15;;;;;;;23.9;13.65;;;;;;;0.88;100;97066.24;;;;
2021/12/17 07:48:16;;;;;;;23.9;13.65;;;;;;;0.88;100;97066.24;;;;
2021/12/17 07:49:16;;;;;;;23.9;13.65;;;;;;;0.88;100;97066.24;;;;
2021/12/17 07:50:17;;;;;;;23.9;13.65;;;;;;;0.88;100;97066.24;;;;
2021/12/17 07:51:18;;;;;;;23.9;13.65;;;;;;;0.88;100;97066.24;;;;
2021/12/17 07:52:21;;;;;;;23.9;13.65;;;;;;;0.88;100;97066.24;;;;
2021/12/17 07:53:21;;;;;;;23.9;13.65;;;;;;;0.88;100;97066.24;;;;
2021/12/17 07:54:22;;;;;;;23.9;13.65;;;;;;;0.88;100;97066.24;;;;
2021/12/17 07:55:23;;;;;;;23.9;13.65;;;;;;;0.88;100;97066.24;;;;
2021/12/17 07:56:23;;;;;;;23.9;13.65;;;;;;;0.88;100;97066.24;;;;
2021/12/17 07:57:27;;;;;;;23.9;13.65;;;;;;;0.88;100;97066.24;;;;
2021/12/17 07:58:27;;;;;;;23.9;13.65;;;;;;;0.88;100;97066.24;;;;
2021/12/17 07:59:29;;;;;;;23.9;13.65;;;;;;;0.88;100;97066.24;;;;
2021/12/17 08:00:29;;;;;;;23.9;13.65;;;;;;;0.88;100;97066.24;;;;
2021/12/17 08:01:30;;;;;;;23.9;13.65;;;;;;;0.88;100;97066.24;;;;
2021/12/17 08:02:30;;;;;;;23.9;13.65;;;;;;;0.88;100;97066.24;;;;
2021/12/17 08:03:31;;;;;;;18.9;11.85;;;;;;;1.08;100;97105.32;;;;
2021/12/17 08:04:31;;;;;;;18.9;11.85;;;;;;;1.08;100;97105.32;;;;
2021/12/17 08:05:32;;;;;;;18.9;11.85;;;;;;;1.08;100;97105.32;;;;
2021/12/17 08:06:33;;;;;;;18.9;11.85;;;;;;;1.08;100;97105.32;;;;
2021/12/17 08:07:35;;;;;;;18.9;11.85;;;;;;;1.08;100;97105.32;;;;
2021/12/17 08:08:35;;;;;;;18.9;11.85;;;;;;;1.08;100;97105.32;;;;
2021/12/17 08:09:39;;;;;;;18.9;11.85;;;;;;;1.08;100;97105.32;;;;
2021/12/17 08:10:39;;;;;;;18.9;11.85;;;;;;;1.08;100;97105.32;;;;
2021/12/17 08:11:40;;;;;;;18.9;11.85;;;;;;;1.08;100;97105.32;;;;
2021/12/17 08:12:41;;;;;;;18.9;11.85;;;;;;;1.08;100;97105.32;;;;
2021/12/17 08:13:44;;;;;;;18.9;11.85;;;;;;;1.08;100;97105.32;;;;
2021/12/17 08:14:44;;;;;;;19.35;11.3;;;;;;;1.11;100;97103.72;;;;
2021/12/17 08:15:52;;;;;;;19.35;11.3;;;;;;;1.11;100;97103.72;;;;
2021/12/17 08:16:58;;;;;;;19.35;11.3;;;;;;;1.11;100;97103.72;;;;
2021/12/17 08:18:21;;;;;;;19.35;11.3;;;;;;;1.11;100;97103.72;;;;
2021/12/17 08:25:11;;;;;;;19.35;11.3;;;;;;;1.11;100;97103.72;;;;
2021/12/17 08:26:17;;;;;;;23.05;13.75;;;;;;;1.29;100;97102.96;;;;
2021/12/17 08:27:45;;;;;;;23.05;13.75;;;;;;;1.29;100;97102.96;;;;
2021/12/17 08:29:06;;;;;;;23.05;13.75;;;;;;;1.29;100;97102.96;;;;
2021/12/17 08:30:22;;;;;;;23.05;13.75;;;;;;;1.29;100;97102.96;;;;
2021/12/17 08:31:22;;;;;;;23.05;13.75;;;;;;;1.29;100;97102.96;;;;
2021/12/17 08:32:23;;;;;;;23.05;13.75;;;;;;;1.29;100;97102.96;;;;
2021/12/17 08:33:23;;;;;;;23.05;13.75;;;;;;;1.29;100;97102.96;;;;
2021/12/17 08:34:24;;;;;;;23.05;13.75;;;;;;;1.29;100;97102.96;;;;
2021/12/17 08:35:25;;;;;;;23.05;13.75;;;;;;;1.29;100;97102.96;;;;
2021/12/17 08:36:26;;;;;;;23.05;13.75;;;;;;;1.29;100;97102.96;;;;
2021/12/17 08:37:28;;;;;;;23.05;13.75;;;;;;;1.29;100;97102.96;;;;
2021/12/17 08:38:29;;;;;;;23.05;13.75;;;;;;;1.29;100;97102.96;;;;
2021/12/17 08:39:30;;;;;;;23.05;13.75;;;;;;;1.29;100;97102.96;;;;
2021/12/17 08:40:30;;;;;;;23.05;13.75;;;;;;;1.29;100;97102.96;;;;
2021/12/17 08:41:31;;;;;;;23.05;13.75;;;;;;;1.29;100;97102.96;;;;
2021/12/17 08:42:32;;;;;;;23.05;13.75;;;;;;;1.29;100;97102.96;;;;
2021/12/17 08:43:33;;;;;;;23.05;13.75;;;;;;;1.29;100;97102.96;;;;
2021/12/17 08:44:33;;;;;;;23.05;13.75;;;;;;;1.29;100;97102.96;;;;
2021/12/17 08:45:34;;;;;;;23.05;13.75;;;;;;;1.29;100;97102.96;;;;
2021/12/17 08:46:34;;;;;;;23.05;13.75;;;;;;;1.29;100;97102.96;;;;
2021/12/17 08:47:36;;;;;;;9.95;8.950001;;;;;;;12.46;82.81641;97083.25;;;;
2021/12/17 08:48:37;;;;;;;9.95;8.950001;;;;;;;12.46;82.81641;97083.25;;;;
2021/12/17 08:49:40;;;;;;;9.95;8.950001;;;;;;;12.46;82.81641;97083.25;;;;
2021/12/17 08:50:41;;;;;;;9.95;8.950001;;;;;;;12.46;82.81641;97083.25;;;;